createdAt,value
2023-05-07T00:00:09.998Z,3.90
2023-05-07T00:02:38.425Z,3.60
2023-05-07T00:05:07.684Z,4.03
2023-05-07T00:07:35.826Z,4.30
2023-05-07T00:10:04.118Z,3.43
2023-05-07T00:12:34.727Z,3.60
2023-05-07T00:15:03.769Z,4.30
2023-05-07T00:17:31.946Z,4.70
2023-05-07T00:20:00.131Z,3.30
2023-05-07T00:22:28.237Z,3.60
2023-05-07T00:24:56.263Z,3.80
2023-05-07T00:27:24.357Z,3.30
2023-05-07T00:29:53.917Z,3.70
2023-05-07T00:32:22.090Z,4.17
2023-05-07T00:34:50.367Z,3.10
2023-05-07T00:37:18.553Z,3.27
2023-05-07T00:39:46.610Z,3.83
2023-05-07T00:42:16.059Z,3.57
2023-05-07T00:44:44.170Z,3.30
2023-05-07T00:47:14.120Z,3.43
2023-05-07T00:49:44.991Z,3.53
2023-05-07T00:52:15.944Z,3.40
2023-05-07T00:54:44.400Z,3.47
2023-05-07T00:57:13.192Z,3.27
2023-05-07T00:59:41.831Z,3.30
2023-05-07T01:02:09.977Z,3.03
2023-05-07T01:04:39.486Z,3.50
2023-05-07T01:07:08.351Z,3.90
2023-05-07T01:09:37.645Z,3.40
2023-05-07T01:12:06.597Z,2.97
2023-05-07T01:14:35.110Z,3.40
2023-05-07T01:17:03.618Z,3.10
2023-05-07T01:19:32.374Z,3.30
2023-05-07T01:22:06.122Z,2.70
2023-05-07T01:24:36.219Z,3.50
2023-05-07T01:27:04.454Z,3.50
2023-05-07T01:29:32.578Z,3.80
2023-05-07T01:32:02.350Z,3.73
2023-05-07T01:34:33.344Z,3.90
2023-05-07T01:37:02.338Z,4.00
2023-05-07T01:39:32.130Z,3.37
2023-05-07T01:42:01.670Z,3.80
2023-05-07T01:44:30.426Z,3.67
2023-05-07T01:46:59.673Z,3.37
2023-05-07T01:49:28.322Z,4.40
2023-05-07T01:51:56.956Z,3.37
2023-05-07T01:54:29.684Z,3.63
2023-05-07T01:56:59.003Z,3.40
2023-05-07T01:59:28.452Z,3.87
2023-05-07T02:01:56.610Z,3.50
2023-05-07T02:04:25.696Z,3.13
2023-05-07T02:06:53.768Z,3.43
2023-05-07T02:09:22.100Z,3.30
2023-05-07T02:11:50.175Z,3.53
2023-05-07T02:14:18.231Z,2.90
2023-05-07T02:16:47.778Z,3.60
2023-05-07T02:19:16.003Z,3.43
2023-05-07T02:21:44.249Z,3.27
2023-05-07T02:24:12.302Z,3.43
2023-05-07T02:26:41.870Z,4.10
2023-05-07T02:29:09.992Z,3.50
2023-05-07T02:31:38.075Z,3.40
2023-05-07T02:34:07.587Z,3.33
2023-05-07T02:36:35.913Z,3.33
2023-05-07T02:39:04.102Z,3.70
2023-05-07T02:41:32.323Z,3.13
2023-05-07T02:44:00.390Z,3.53
2023-05-07T02:46:28.523Z,3.60
2023-05-07T02:48:56.799Z,3.80
2023-05-07T02:51:27.001Z,3.97
2023-05-07T02:53:56.078Z,3.17
2023-05-07T02:56:24.283Z,3.30
2023-05-07T02:58:52.350Z,3.50
2023-05-07T03:01:21.880Z,3.63
2023-05-07T03:03:50.240Z,3.77
2023-05-07T03:06:18.311Z,3.67
2023-05-07T03:08:47.774Z,3.50
2023-05-07T03:11:15.937Z,2.97
2023-05-07T03:13:43.997Z,3.50
2023-05-07T03:16:12.115Z,3.60
2023-05-07T03:18:40.285Z,4.17
2023-05-07T03:21:08.424Z,3.63
2023-05-07T03:23:36.818Z,3.40
2023-05-07T03:26:06.326Z,3.80
2023-05-07T03:28:34.377Z,4.00
2023-05-07T03:31:02.544Z,3.87
2023-05-07T03:33:30.697Z,3.60
2023-05-07T03:35:58.777Z,4.73
2023-05-07T03:38:26.834Z,3.00
2023-05-07T03:40:55.009Z,3.97
2023-05-07T03:43:24.440Z,3.50
2023-05-07T03:45:52.549Z,3.70
2023-05-07T03:48:20.592Z,3.60
2023-05-07T03:50:48.775Z,3.03
2023-05-07T03:53:16.855Z,3.50
2023-05-07T03:55:44.924Z,3.67
2023-05-07T03:58:12.997Z,3.97
2023-05-07T04:00:42.477Z,4.33
2023-05-07T04:03:11.022Z,3.50
2023-05-07T04:05:39.297Z,4.50
2023-05-07T04:08:07.542Z,3.77
2023-05-07T04:10:35.582Z,6.70
2023-05-07T04:13:03.667Z,4.70
2023-05-07T04:15:31.768Z,5.10
2023-05-07T04:18:01.317Z,5.13
2023-05-07T04:20:29.466Z,4.80
2023-05-07T04:22:57.525Z,4.43
2023-05-07T04:25:27.418Z,4.30
2023-05-07T04:27:57.394Z,4.97
2023-05-07T04:30:26.233Z,5.50
2023-05-07T04:32:54.940Z,4.80
2023-05-07T04:35:24.573Z,5.13
2023-05-07T04:37:52.619Z,5.20
2023-05-07T04:40:21.053Z,5.63
2023-05-07T04:42:49.147Z,5.80
2023-05-07T04:45:17.213Z,5.80
2023-05-07T04:47:45.423Z,6.50
2023-05-07T04:50:13.641Z,5.10
2023-05-07T04:52:43.286Z,5.80
2023-05-07T04:55:11.800Z,4.73
2023-05-07T04:57:40.564Z,5.43
2023-05-07T05:00:11.405Z,5.10
2023-05-07T05:02:39.778Z,4.50
2023-05-07T05:05:08.767Z,4.53
2023-05-07T05:07:36.872Z,4.43
2023-05-07T05:10:08.398Z,4.70
2023-05-07T05:12:36.628Z,4.30
2023-05-07T05:15:05.287Z,4.23
2023-05-07T05:17:35.460Z,4.30
2023-05-07T05:20:03.722Z,3.90
2023-05-07T05:22:32.504Z,4.60
2023-05-07T05:25:01.090Z,4.40
2023-05-07T05:27:31.183Z,4.87
2023-05-07T05:29:59.257Z,4.87
2023-05-07T05:32:27.415Z,5.53
2023-05-07T05:34:55.537Z,5.20
2023-05-07T05:37:23.704Z,5.60
2023-05-07T05:39:51.794Z,5.87
2023-05-07T05:42:19.861Z,5.90
2023-05-07T05:44:49.287Z,6.67
2023-05-07T05:47:17.405Z,7.07
2023-05-07T05:49:45.571Z,9.97
2023-05-07T05:52:15.265Z,15.33
2023-05-07T05:54:43.333Z,17.63
2023-05-07T05:57:11.435Z,16.60
2023-05-07T05:59:39.736Z,17.77
2023-05-07T06:02:09.380Z,18.20
2023-05-07T06:04:37.651Z,16.93
2023-05-07T06:07:05.858Z,17.37
2023-05-07T06:09:33.906Z,17.60
2023-05-07T06:12:01.968Z,16.30
2023-05-07T06:14:30.124Z,14.63
2023-05-07T06:16:58.749Z,14.90
2023-05-07T06:19:29.247Z,15.10
2023-05-07T06:21:58.212Z,15.07
2023-05-07T06:24:26.754Z,16.70
2023-05-07T06:26:54.886Z,15.63
2023-05-07T06:29:22.966Z,15.13
2023-05-07T06:31:51.059Z,16.50
2023-05-07T06:34:19.213Z,15.90
2023-05-07T06:36:48.636Z,17.00
2023-05-07T06:39:16.684Z,16.03
2023-05-07T06:41:44.746Z,15.60
2023-05-07T06:44:12.823Z,16.80
2023-05-07T06:46:42.587Z,17.97
2023-05-07T06:49:10.929Z,17.40
2023-05-07T06:51:38.993Z,19.27
2023-05-07T06:54:08.531Z,19.50
2023-05-07T06:56:36.784Z,18.40
2023-05-07T06:59:05.704Z,19.40
2023-05-07T07:01:33.838Z,20.60
2023-05-07T07:04:01.944Z,19.07
2023-05-07T07:06:30.747Z,20.07
2023-05-07T07:08:58.772Z,19.23
2023-05-07T07:11:28.252Z,20.47
2023-05-07T07:13:56.402Z,20.60
2023-05-07T07:16:24.638Z,17.90
2023-05-07T07:18:53.227Z,19.60
2023-05-07T07:21:21.317Z,20.67
2023-05-07T07:23:49.387Z,18.70
2023-05-07T07:26:17.513Z,19.67
2023-05-07T07:28:47.743Z,19.53
2023-05-07T07:31:16.220Z,19.80
2023-05-07T07:33:44.414Z,19.37
2023-05-07T07:36:12.542Z,17.53
2023-05-07T07:38:40.655Z,17.90
2023-05-07T07:41:10.584Z,18.23
2023-05-07T07:43:38.724Z,18.30
2023-05-07T07:46:08.929Z,18.17
2023-05-07T07:48:37.849Z,20.43
2023-05-07T07:51:06.986Z,17.10
2023-05-07T07:53:35.780Z,18.57
2023-05-07T07:56:05.857Z,18.57
2023-05-07T07:58:36.664Z,18.20
2023-05-07T08:01:05.892Z,18.23
2023-05-07T08:03:36.784Z,18.10
2023-05-07T08:06:05.932Z,18.83
2023-05-07T08:08:34.647Z,17.20
2023-05-07T08:11:03.488Z,17.20
2023-05-07T08:13:32.265Z,18.20
2023-05-07T08:16:01.021Z,17.53
2023-05-07T08:18:29.991Z,17.47
2023-05-07T08:20:59.551Z,15.80
2023-05-07T08:23:27.630Z,17.17
2023-05-07T08:25:55.764Z,16.37
2023-05-07T08:28:25.727Z,16.00
2023-05-07T08:30:53.913Z,15.50
2023-05-07T08:33:22.103Z,13.07
2023-05-07T08:35:50.147Z,12.77
2023-05-07T08:38:19.613Z,15.53
2023-05-07T08:40:47.980Z,14.77
2023-05-07T08:43:16.825Z,13.87
2023-05-07T08:45:47.730Z,12.00
2023-05-07T08:48:18.960Z,13.47
2023-05-07T08:50:47.265Z,14.93
2023-05-07T08:53:16.800Z,13.30
2023-05-07T08:55:47.054Z,12.77
2023-05-07T08:58:15.157Z,10.20
2023-05-07T09:00:44.481Z,12.67
2023-05-07T09:03:13.833Z,12.57
2023-05-07T09:05:44.819Z,11.30
2023-05-07T09:08:16.509Z,16.30
2023-05-07T09:10:46.926Z,14.03
2023-05-07T09:13:15.544Z,14.70
2023-05-07T09:15:43.867Z,13.23
2023-05-07T09:18:11.970Z,10.30
2023-05-07T09:20:40.503Z,12.87
2023-05-07T09:23:09.174Z,13.27
2023-05-07T09:25:38.621Z,13.93
2023-05-07T09:28:08.322Z,13.60
2023-05-07T09:30:36.911Z,14.63
2023-05-07T09:33:06.276Z,14.30
2023-05-07T09:35:34.389Z,12.60
2023-05-07T09:38:04.300Z,12.93
2023-05-07T09:40:33.160Z,11.90
2023-05-07T09:43:13.246Z,13.63
2023-05-07T09:45:41.373Z,12.73
2023-05-07T09:48:10.741Z,13.03
2023-05-07T09:50:46.343Z,13.47
2023-05-07T09:53:16.261Z,11.80
2023-05-07T09:55:45.337Z,11.90
2023-05-07T09:58:17.109Z,12.77
2023-05-07T10:00:45.545Z,12.40
2023-05-07T10:03:15.312Z,14.07
2023-05-07T10:05:45.566Z,13.70
2023-05-07T10:08:14.178Z,12.10
2023-05-07T10:10:43.187Z,13.07
2023-05-07T10:13:12.485Z,11.57
2023-05-07T10:15:42.892Z,12.30
2023-05-07T10:18:12.116Z,14.03
2023-05-07T10:20:42.180Z,13.73
2023-05-07T10:23:15.036Z,11.07
2023-05-07T10:25:43.291Z,12.20
2023-05-07T10:28:13.506Z,12.23
2023-05-07T10:30:57.189Z,11.17
2023-05-07T10:33:29.239Z,12.37
2023-05-07T10:36:02.474Z,12.73
2023-05-07T10:38:30.695Z,12.67
2023-05-07T10:40:59.107Z,12.30
2023-05-07T10:43:27.357Z,10.00
2023-05-07T10:46:18.228Z,11.00
2023-05-07T10:49:15.168Z,9.20
2023-05-07T10:51:43.239Z,8.30
2023-05-07T10:54:24.972Z,8.83
2023-05-07T10:56:53.117Z,7.50
2023-05-07T10:59:42.723Z,7.90
2023-05-07T11:02:15.185Z,7.17
2023-05-07T11:04:43.726Z,6.00
2023-05-07T11:07:27.901Z,6.63
2023-05-07T11:10:02.350Z,5.90
2023-05-07T11:12:55.598Z,6.20
2023-05-07T11:15:46.396Z,5.33
2023-05-07T11:18:17.408Z,6.00
2023-05-07T11:21:06.367Z,5.40
2023-05-07T11:24:11.212Z,6.27
2023-05-07T11:26:50.150Z,4.87
2023-05-07T11:29:22.256Z,6.23
2023-05-07T11:31:52.582Z,5.27
2023-05-07T11:34:25.677Z,4.23
2023-05-07T11:36:54.538Z,6.60
2023-05-07T11:39:27.073Z,7.30
2023-05-07T11:41:55.209Z,7.20
2023-05-07T11:44:23.318Z,7.17
2023-05-07T11:46:51.805Z,6.70
2023-05-07T11:49:20.436Z,6.87
2023-05-07T11:51:49.982Z,6.23
2023-05-07T11:54:18.881Z,6.77
2023-05-07T11:56:48.241Z,6.13
2023-05-07T11:59:20.401Z,8.40
2023-05-07T12:01:49.343Z,6.97
2023-05-07T12:04:22.736Z,6.10
2023-05-07T12:06:56.999Z,6.20
2023-05-07T12:09:25.201Z,5.67
2023-05-07T12:11:54.752Z,5.77
2023-05-07T12:14:22.873Z,7.30
2023-05-07T12:16:51.081Z,7.47
2023-05-07T12:19:19.377Z,7.33
2023-05-07T12:21:47.513Z,7.20
2023-05-07T12:24:21.920Z,6.97
2023-05-07T12:26:50.490Z,6.90
2023-05-07T12:29:18.777Z,6.73
2023-05-07T12:31:46.926Z,7.07
2023-05-07T12:34:15.036Z,7.60
2023-05-07T12:36:43.322Z,8.10
2023-05-07T12:39:11.524Z,8.27
2023-05-07T12:44:35.214Z,6.40
2023-05-07T12:47:04.535Z,7.37
2023-05-07T12:49:32.705Z,7.60
2023-05-07T12:52:01.507Z,6.63
2023-05-07T12:54:32.902Z,7.33
2023-05-07T12:57:05.207Z,6.83
2023-05-07T12:59:35.853Z,7.73
2023-05-07T13:02:04.121Z,7.30
2023-05-07T13:04:32.337Z,7.80
2023-05-07T13:07:00.750Z,7.00
2023-05-07T13:09:30.029Z,6.83
2023-05-07T13:12:01.014Z,6.47
2023-05-07T13:14:29.495Z,6.87
2023-05-07T13:16:59.261Z,5.97
2023-05-07T13:19:29.073Z,6.23
2023-05-07T13:21:58.507Z,6.63
2023-05-07T13:24:26.631Z,6.27
2023-05-07T13:26:54.672Z,7.27
2023-05-07T13:29:26.392Z,7.90
2023-05-07T13:31:54.646Z,6.60
2023-05-07T13:34:24.194Z,6.70
2023-05-07T13:36:52.388Z,6.77
2023-05-07T13:39:21.086Z,8.00
2023-05-07T13:41:49.136Z,8.67
2023-05-07T13:44:17.215Z,6.90
2023-05-07T13:46:45.368Z,8.23
2023-05-07T13:49:13.895Z,8.57
2023-05-07T13:51:44.326Z,7.57
2023-05-07T13:54:12.837Z,7.67
2023-05-07T13:56:41.206Z,7.83
2023-05-07T13:59:09.422Z,8.53
2023-05-07T14:01:37.589Z,9.77
2023-05-07T14:04:06.063Z,8.10
2023-05-07T14:06:34.143Z,8.10
2023-05-07T14:09:03.590Z,8.37
2023-05-07T14:11:33.342Z,7.50
2023-05-07T14:14:02.138Z,7.27
2023-05-07T14:16:30.218Z,5.90
2023-05-07T14:18:58.857Z,6.80
2023-05-07T14:21:27.149Z,6.97
2023-05-07T14:23:56.512Z,7.33
2023-05-07T14:26:27.979Z,6.97
2023-05-07T14:28:58.419Z,6.73
2023-05-07T14:31:26.799Z,7.40
2023-05-07T14:33:54.910Z,7.13
2023-05-07T14:36:23.940Z,6.77
2023-05-07T14:38:52.000Z,6.90
2023-05-07T14:41:20.185Z,7.50
2023-05-07T14:43:51.064Z,6.30
2023-05-07T14:46:19.694Z,6.67
2023-05-07T14:48:47.957Z,7.30
2023-05-07T14:51:16.360Z,7.03
2023-05-07T14:53:44.416Z,6.33
2023-05-07T14:56:12.703Z,7.70
2023-05-07T14:58:40.880Z,6.83
2023-05-07T15:01:10.390Z,7.80
2023-05-07T15:03:38.709Z,7.20
2023-05-07T15:06:07.117Z,6.70
2023-05-07T15:08:35.172Z,7.10
2023-05-07T15:11:03.324Z,6.90
2023-05-07T15:13:31.400Z,6.50
2023-05-07T15:15:59.461Z,6.90
2023-05-07T15:18:28.923Z,7.07
2023-05-07T15:20:58.836Z,6.53
2023-05-07T15:23:27.205Z,6.80
2023-05-07T15:25:55.400Z,7.17
2023-05-07T15:28:23.622Z,6.30
2023-05-07T15:30:51.692Z,7.30
2023-05-07T15:33:19.736Z,7.10
2023-05-07T15:35:49.143Z,7.30
2023-05-07T15:38:17.258Z,8.30
2023-05-07T15:40:45.614Z,7.13
2023-05-07T15:43:13.996Z,8.57
2023-05-07T15:45:43.106Z,8.17
2023-05-07T15:48:11.986Z,8.20
2023-05-07T15:50:40.202Z,8.90
2023-05-07T15:53:10.536Z,9.20
2023-05-07T15:55:38.811Z,9.13
2023-05-07T15:58:06.976Z,9.10
2023-05-07T16:00:36.245Z,10.60
2023-05-07T16:03:04.971Z,9.17
2023-05-07T16:05:33.226Z,9.10
2023-05-07T16:08:01.305Z,10.07
2023-05-07T16:10:31.152Z,8.80
2023-05-07T16:12:59.432Z,8.27
2023-05-07T16:15:27.519Z,8.53
2023-05-07T16:17:58.134Z,10.70
2023-05-07T16:20:30.941Z,10.70
2023-05-07T16:22:59.129Z,12.40
2023-05-07T16:25:27.244Z,10.70
2023-05-07T16:27:57.546Z,12.50
2023-05-07T16:30:25.773Z,10.63
2023-05-07T16:32:53.883Z,10.77
2023-05-07T16:35:22.281Z,12.00
2023-05-07T16:37:50.368Z,12.03
2023-05-07T16:40:18.401Z,11.60
2023-05-07T16:42:46.494Z,11.67
2023-05-07T16:45:16.398Z,12.07
2023-05-07T16:47:44.656Z,10.63
2023-05-07T16:50:13.001Z,9.70
2023-05-07T16:52:41.112Z,11.67
2023-05-07T16:55:09.774Z,11.67
2023-05-07T16:57:38.069Z,10.63
2023-05-07T17:00:07.778Z,9.90
2023-05-07T17:02:37.459Z,11.53
2023-05-07T17:05:07.232Z,11.90
2023-05-07T17:07:35.471Z,9.97
2023-05-07T17:10:03.697Z,11.03
2023-05-07T17:12:32.700Z,10.20
2023-05-07T17:15:00.828Z,10.33
2023-05-07T17:17:29.011Z,9.87
2023-05-07T17:19:59.959Z,11.20
2023-05-07T17:22:28.265Z,10.20
2023-05-07T17:24:56.531Z,9.87
2023-05-07T17:27:24.608Z,9.53
2023-05-07T17:29:52.693Z,9.67
2023-05-07T17:32:20.755Z,9.43
2023-05-07T17:34:48.800Z,8.30
2023-05-07T17:37:18.381Z,9.00
2023-05-07T17:39:46.424Z,9.50
2023-05-07T17:42:14.487Z,8.33
2023-05-07T17:44:42.558Z,9.43
2023-05-07T17:47:10.761Z,9.10
2023-05-07T17:49:38.942Z,8.13
2023-05-07T17:52:07.349Z,8.77
2023-05-07T17:54:36.797Z,8.57
2023-05-07T17:57:05.084Z,9.00
2023-05-07T17:59:33.203Z,9.10
2023-05-07T18:02:01.263Z,7.67
2023-05-07T18:04:29.389Z,8.10
2023-05-07T18:06:57.867Z,9.13
2023-05-07T18:09:25.964Z,8.67
2023-05-07T18:11:55.444Z,7.70
2023-05-07T18:14:26.019Z,8.50
2023-05-07T18:16:54.880Z,8.00
2023-05-07T18:19:22.975Z,8.70
2023-05-07T18:21:51.495Z,8.70
2023-05-07T18:24:19.906Z,9.10
2023-05-07T18:26:49.127Z,8.40
2023-05-07T18:29:18.583Z,8.47
2023-05-07T18:31:46.745Z,8.67
2023-05-07T18:34:15.359Z,9.10
2023-05-07T18:36:43.492Z,8.60
2023-05-07T18:39:11.859Z,9.00
2023-05-07T18:41:39.910Z,9.17
2023-05-07T18:44:08.187Z,8.67
2023-05-07T18:46:37.633Z,8.50
2023-05-07T18:49:05.932Z,9.27
2023-05-07T18:51:34.014Z,9.97
2023-05-07T18:54:02.287Z,9.70
2023-05-07T18:56:30.458Z,9.80
2023-05-07T18:58:58.534Z,10.57
2023-05-07T19:01:26.739Z,10.63
2023-05-07T19:03:56.302Z,9.50
2023-05-07T19:06:24.676Z,11.20
2023-05-07T19:08:52.980Z,11.50
2023-05-07T19:11:21.808Z,11.33
2023-05-07T19:13:49.880Z,12.13
2023-05-07T19:16:18.106Z,10.93
2023-05-07T19:18:46.274Z,10.90
2023-05-07T19:21:15.768Z,10.40
2023-05-07T19:23:44.249Z,11.03
2023-05-07T19:26:13.163Z,11.23
2023-05-07T19:28:45.430Z,11.70
2023-05-07T19:31:21.330Z,12.90
2023-05-07T19:33:49.697Z,12.40
2023-05-07T19:36:19.223Z,13.00
2023-05-07T19:38:49.841Z,13.63
2023-05-07T19:41:17.938Z,13.57
2023-05-07T19:43:46.029Z,12.30
2023-05-07T19:46:14.179Z,14.20
2023-05-07T19:48:42.324Z,13.00
2023-05-07T19:51:11.429Z,11.77
2023-05-07T19:53:40.829Z,13.00
2023-05-07T19:56:11.361Z,12.07
2023-05-07T19:58:40.212Z,13.10
2023-05-07T20:01:08.408Z,12.33
2023-05-07T20:03:36.699Z,12.80
2023-05-07T20:06:04.982Z,13.47
2023-05-07T20:08:33.097Z,13.70
2023-05-07T20:11:02.859Z,12.80
2023-05-07T20:13:30.951Z,12.97
2023-05-07T20:16:00.012Z,13.70
2023-05-07T20:18:29.516Z,13.23
2023-05-07T20:20:58.072Z,12.17
2023-05-07T20:23:26.522Z,12.20
2023-05-07T20:25:54.630Z,13.00
2023-05-07T20:28:24.441Z,12.83
2023-05-07T20:30:52.533Z,12.77
2023-05-07T20:33:20.665Z,12.20
2023-05-07T20:35:49.040Z,13.20
2023-05-07T20:38:17.168Z,12.00
2023-05-07T20:40:45.447Z,13.10
2023-05-07T20:43:13.611Z,12.27
2023-05-07T20:45:43.548Z,11.50
2023-05-07T20:48:12.337Z,11.30
2023-05-07T20:50:40.456Z,14.23
2023-05-07T20:53:08.515Z,14.77
2023-05-07T20:55:36.598Z,13.93
2023-05-07T20:58:04.686Z,16.60
2023-05-07T21:00:32.762Z,15.00
2023-05-07T21:03:02.809Z,13.07
2023-05-07T21:05:32.317Z,14.00
2023-05-07T21:08:00.426Z,13.60
2023-05-07T21:10:28.641Z,14.73
2023-05-07T21:12:56.784Z,16.33
2023-05-07T21:15:24.890Z,15.60
2023-05-07T21:17:53.018Z,14.37
2023-05-07T21:20:22.498Z,13.80
2023-05-07T21:22:50.585Z,17.00
2023-05-07T21:25:19.200Z,17.80
2023-05-07T21:27:47.260Z,15.70
2023-05-07T21:30:16.360Z,16.30
2023-05-07T21:32:44.449Z,17.53
2023-05-07T21:35:12.529Z,16.93
2023-05-07T21:37:42.022Z,17.20
2023-05-07T21:40:10.982Z,17.53
2023-05-07T21:42:39.277Z,19.60
2023-05-07T21:45:08.077Z,15.20
2023-05-07T21:47:36.192Z,15.30
2023-05-07T21:50:05.170Z,15.83
2023-05-07T21:52:33.274Z,13.90
2023-05-07T21:55:02.844Z,12.20
2023-05-07T21:57:30.961Z,12.67
2023-05-07T21:59:59.048Z,11.60
2023-05-07T22:02:27.261Z,11.43
2023-05-07T22:04:55.407Z,11.23
2023-05-07T22:07:23.515Z,11.60
2023-05-07T22:09:51.594Z,10.80
2023-05-07T22:12:21.034Z,9.50
2023-05-07T22:14:49.167Z,7.40
2023-05-07T22:17:17.225Z,7.83
2023-05-07T22:19:45.320Z,6.60
2023-05-07T22:22:13.383Z,6.90
2023-05-07T22:24:41.431Z,6.53
2023-05-07T22:27:09.506Z,5.67
2023-05-07T22:29:39.172Z,5.30
2023-05-07T22:32:07.516Z,6.13
2023-05-07T22:34:36.379Z,6.67
2023-05-07T22:37:04.453Z,5.23
2023-05-07T22:39:35.096Z,5.70
2023-05-07T22:42:03.335Z,5.50
2023-05-07T22:44:31.442Z,5.37
2023-05-07T22:47:00.874Z,5.90
2023-05-07T22:49:28.980Z,5.50
2023-05-07T22:51:57.035Z,6.10
2023-05-07T22:54:25.676Z,5.57
2023-05-07T22:56:54.285Z,5.17
2023-05-07T22:59:22.476Z,5.20
2023-05-07T23:01:50.557Z,4.40
2023-05-07T23:04:19.984Z,5.60
2023-05-07T23:06:48.172Z,5.00
2023-05-07T23:09:16.439Z,5.17
2023-05-07T23:11:44.533Z,5.40
2023-05-07T23:14:12.655Z,5.30
2023-05-07T23:16:41.406Z,4.23
2023-05-07T23:19:11.502Z,5.07
2023-05-07T23:21:40.963Z,4.90
2023-05-07T23:24:09.392Z,5.23
2023-05-07T23:26:37.456Z,6.00
2023-05-07T23:29:05.721Z,6.97
2023-05-07T23:31:33.803Z,6.80
2023-05-07T23:34:01.878Z,6.70
2023-05-07T23:36:30.197Z,6.77
2023-05-07T23:38:59.683Z,7.13
2023-05-07T23:41:28.173Z,6.73
2023-05-07T23:43:56.235Z,7.30
2023-05-07T23:46:24.758Z,7.70
2023-05-07T23:48:52.910Z,6.93
2023-05-07T23:51:20.961Z,8.40
2023-05-07T23:53:49.013Z,8.27
2023-05-07T23:56:18.592Z,10.23
2023-05-07T23:58:46.926Z,14.10
